sensor_id;sensor_type;location;lat;lon;timestamp;pressure;altitude;pressure_sealevel;temperature;humidity
34235;BME280;20500;49.856;20.290;2022-10-16T00:01:11;99126.79;;;10.73;76.72
34235;BME280;20500;49.856;20.290;2022-10-16T00:04:17;99127.27;;;10.73;76.72
34235;BME280;20500;49.856;20.290;2022-10-16T00:07:22;99125.09;;;10.72;76.80
34235;BME280;20500;49.856;20.290;2022-10-16T00:10:29;99124.69;;;10.75;76.75
34235;BME280;20500;49.856;20.290;2022-10-16T00:13:33;99130.84;;;10.80;76.84
34235;BME280;20500;49.856;20.290;2022-10-16T00:16:41;99129.08;;;10.84;77.03
34235;BME280;20500;49.856;20.290;2022-10-16T00:19:47;99134.23;;;10.88;77.11
34235;BME280;20500;49.856;20.290;2022-10-16T00:22:53;99136.38;;;10.91;77.06
34235;BME280;20500;49.856;20.290;2022-10-16T00:25:58;99137.52;;;10.95;76.94
34235;BME280;20500;49.856;20.290;2022-10-16T00:29:07;99138.08;;;10.98;77.10
34235;BME280;20500;49.856;20.290;2022-10-16T00:32:13;99135.91;;;11.01;77.05
34235;BME280;20500;49.856;20.290;2022-10-16T00:35:19;99132.83;;;11.04;77.15
34235;BME280;20500;49.856;20.290;2022-10-16T00:38:25;99137.33;;;11.06;77.27
34235;BME280;20500;49.856;20.290;2022-10-16T00:41:30;99143.15;;;11.08;77.22
34235;BME280;20500;49.856;20.290;2022-10-16T00:44:51;99144.52;;;11.10;77.24
34235;BME280;20500;49.856;20.290;2022-10-16T00:47:58;99150.54;;;11.11;77.25
34235;BME280;20500;49.856;20.290;2022-10-16T00:51:06;99155.71;;;11.10;77.25
34235;BME280;20500;49.856;20.290;2022-10-16T00:54:15;99150.21;;;11.09;77.28
34235;BME280;20500;49.856;20.290;2022-10-16T00:57:22;99149.11;;;11.07;77.25
34235;BME280;20500;49.856;20.290;2022-10-16T01:00:28;99156.30;;;11.07;77.33
34235;BME280;20500;49.856;20.290;2022-10-16T01:03:33;99158.92;;;11.11;77.39
34235;BME280;20500;49.856;20.290;2022-10-16T01:06:46;99163.47;;;11.12;77.36
34235;BME280;20500;49.856;20.290;2022-10-16T01:10:06;99160.80;;;11.13;77.44
34235;BME280;20500;49.856;20.290;2022-10-16T01:13:18;99156.82;;;11.15;77.46
34235;BME280;20500;49.856;20.290;2022-10-16T01:16:31;99162.10;;;11.17;77.55
34235;BME280;20500;49.856;20.290;2022-10-16T01:19:57;99167.07;;;11.21;77.51
34235;BME280;20500;49.856;20.290;2022-10-16T01:23:27;99165.60;;;11.21;77.54
34235;BME280;20500;49.856;20.290;2022-10-16T01:26:41;99161.86;;;11.21;77.53
34235;BME280;20500;49.856;20.290;2022-10-16T01:29:54;99158.49;;;11.25;77.67
34235;BME280;20500;49.856;20.290;2022-10-16T01:33:05;99159.30;;;11.29;77.72
34235;BME280;20500;49.856;20.290;2022-10-16T01:36:17;99160.48;;;11.32;77.69
34235;BME280;20500;49.856;20.290;2022-10-16T01:39:29;99162.30;;;11.33;77.85
34235;BME280;20500;49.856;20.290;2022-10-16T01:42:39;99164.70;;;11.36;77.81
34235;BME280;20500;49.856;20.290;2022-10-16T01:45:48;99162.16;;;11.37;77.92
34235;BME280;20500;49.856;20.290;2022-10-16T01:48:55;99164.41;;;11.38;78.06
34235;BME280;20500;49.856;20.290;2022-10-16T01:52:04;99170.41;;;11.38;78.00
34235;BME280;20500;49.856;20.290;2022-10-16T01:55:14;99167.86;;;11.39;78.00
34235;BME280;20500;49.856;20.290;2022-10-16T01:58:23;99172.48;;;11.41;77.98
34235;BME280;20500;49.856;20.290;2022-10-16T02:01:33;99173.13;;;11.44;77.98
34235;BME280;20500;49.856;20.290;2022-10-16T02:04:45;99177.73;;;11.46;78.00
34235;BME280;20500;49.856;20.290;2022-10-16T02:07:51;99181.40;;;11.49;78.07
34235;BME280;20500;49.856;20.290;2022-10-16T02:10:59;99178.61;;;11.51;78.13
34235;BME280;20500;49.856;20.290;2022-10-16T02:14:07;99182.14;;;11.54;78.02
34235;BME280;20500;49.856;20.290;2022-10-16T02:17:15;99185.05;;;11.55;78.07
34235;BME280;20500;49.856;20.290;2022-10-16T02:20:24;99181.85;;;11.56;78.06
34235;BME280;20500;49.856;20.290;2022-10-16T02:23:37;99185.86;;;11.56;78.10
34235;BME280;20500;49.856;20.290;2022-10-16T02:26:51;99188.15;;;11.56;78.28
34235;BME280;20500;49.856;20.290;2022-10-16T02:30:02;99188.58;;;11.57;78.44
34235;BME280;20500;49.856;20.290;2022-10-16T02:33:14;99191.42;;;11.59;78.64
34235;BME280;20500;49.856;20.290;2022-10-16T02:36:21;99187.46;;;11.61;78.61
34235;BME280;20500;49.856;20.290;2022-10-16T02:39:28;99183.94;;;11.61;78.62
34235;BME280;20500;49.856;20.290;2022-10-16T02:42:38;99182.43;;;11.61;78.68
34235;BME280;20500;49.856;20.290;2022-10-16T02:45:44;99185.80;;;11.62;78.67
34235;BME280;20500;49.856;20.290;2022-10-16T02:48:51;99184.25;;;11.63;78.63
34235;BME280;20500;49.856;20.290;2022-10-16T02:51:57;99184.52;;;11.64;78.78
34235;BME280;20500;49.856;20.290;2022-10-16T02:55:04;99183.55;;;11.66;78.87
34235;BME280;20500;49.856;20.290;2022-10-16T02:58:10;99184.85;;;11.67;78.84
34235;BME280;20500;49.856;20.290;2022-10-16T03:01:17;99182.52;;;11.68;78.93
34235;BME280;20500;49.856;20.290;2022-10-16T03:04:23;99186.33;;;11.70;79.04
34235;BME280;20500;49.856;20.290;2022-10-16T03:07:27;99188.44;;;11.70;79.17
34235;BME280;20500;49.856;20.290;2022-10-16T03:10:34;99191.45;;;11.70;79.09
34235;BME280;20500;49.856;20.290;2022-10-16T03:13:40;99190.55;;;11.68;79.06
34235;BME280;20500;49.856;20.290;2022-10-16T03:16:44;99189.46;;;11.68;79.21
34235;BME280;20500;49.856;20.290;2022-10-16T03:19:51;99190.61;;;11.69;79.25
34235;BME280;20500;49.856;20.290;2022-10-16T03:22:57;99191.77;;;11.70;79.23
34235;BME280;20500;49.856;20.290;2022-10-16T03:26:01;99191.41;;;11.70;79.31
34235;BME280;20500;49.856;20.290;2022-10-16T03:29:08;99193.20;;;11.70;79.52
34235;BME280;20500;49.856;20.290;2022-10-16T03:32:14;99195.52;;;11.70;79.38
34235;BME280;20500;49.856;20.290;2022-10-16T03:35:18;99197.33;;;11.70;79.35
34235;BME280;20500;49.856;20.290;2022-10-16T03:38:25;99198.04;;;11.70;79.50
34235;BME280;20500;49.856;20.290;2022-10-16T03:41:31;99195.56;;;11.70;79.53
34235;BME280;20500;49.856;20.290;2022-10-16T03:44:35;99199.25;;;11.70;79.61
34235;BME280;20500;49.856;20.290;2022-10-16T03:47:42;99203.90;;;11.69;79.62
34235;BME280;20500;49.856;20.290;2022-10-16T03:50:48;99203.86;;;11.67;79.63
34235;BME280;20500;49.856;20.290;2022-10-16T03:53:56;99209.73;;;11.64;79.56
34235;BME280;20500;49.856;20.290;2022-10-16T03:57:00;99211.95;;;11.61;79.67
34235;BME280;20500;49.856;20.290;2022-10-16T04:00:08;99214.65;;;11.60;79.87
34235;BME280;20500;49.856;20.290;2022-10-16T04:03:15;99218.73;;;11.62;79.95
34235;BME280;20500;49.856;20.290;2022-10-16T04:06:22;99220.87;;;11.65;79.93
34235;BME280;20500;49.856;20.290;2022-10-16T04:09:26;99228.65;;;11.68;79.68
34235;BME280;20500;49.856;20.290;2022-10-16T04:12:32;99228.88;;;11.73;79.89
34235;BME280;20500;49.856;20.290;2022-10-16T04:15:37;99229.17;;;11.78;79.74
34235;BME280;20500;49.856;20.290;2022-10-16T04:18:43;99230.77;;;11.85;79.67
34235;BME280;20500;49.856;20.290;2022-10-16T04:21:47;99231.52;;;11.92;79.61
34235;BME280;20500;49.856;20.290;2022-10-16T04:24:54;99238.78;;;12.01;79.61
34235;BME280;20500;49.856;20.290;2022-10-16T04:27:58;99242.66;;;12.08;79.51
34235;BME280;20500;49.856;20.290;2022-10-16T04:31:06;99238.68;;;12.13;79.28
34235;BME280;20500;49.856;20.290;2022-10-16T04:34:12;99239.19;;;12.20;79.35
34235;BME280;20500;49.856;20.290;2022-10-16T04:37:19;99237.16;;;12.26;79.12
34235;BME280;20500;49.856;20.290;2022-10-16T04:40:25;99232.91;;;12.31;79.12
34235;BME280;20500;49.856;20.290;2022-10-16T04:43:29;99234.02;;;12.35;79.05
34235;BME280;20500;49.856;20.290;2022-10-16T04:46:36;99237.30;;;12.39;79.13
34235;BME280;20500;49.856;20.290;2022-10-16T04:49:42;99235.60;;;12.43;78.95
34235;BME280;20500;49.856;20.290;2022-10-16T04:52:48;99234.70;;;12.46;78.85
34235;BME280;20500;49.856;20.290;2022-10-16T04:55:52;99237.96;;;12.50;78.74
34235;BME280;20500;49.856;20.290;2022-10-16T04:58:59;99238.66;;;12.53;78.65
34235;BME280;20500;49.856;20.290;2022-10-16T05:02:03;99242.39;;;12.56;78.65
34235;BME280;20500;49.856;20.290;2022-10-16T05:05:10;99247.86;;;12.58;78.47
34235;BME280;20500;49.856;20.290;2022-10-16T05:08:16;99248.32;;;12.62;78.48
34235;BME280;20500;49.856;20.290;2022-10-16T05:11:23;99252.55;;;12.65;78.35
34235;BME280;20500;49.856;20.290;2022-10-16T05:14:27;99250.78;;;12.67;78.37
34235;BME280;20500;49.856;20.290;2022-10-16T05:17:33;99257.95;;;12.69;78.37
34235;BME280;20500;49.856;20.290;2022-10-16T05:20:43;99267.30;;;12.72;78.39
34235;BME280;20500;49.856;20.290;2022-10-16T05:23:49;99265.20;;;12.75;78.27
34235;BME280;20500;49.856;20.290;2022-10-16T05:26:54;99265.73;;;12.76;78.09
34235;BME280;20500;49.856;20.290;2022-10-16T05:30:00;99266.89;;;12.80;78.03
34235;BME280;20500;49.856;20.290;2022-10-16T05:33:04;99268.56;;;12.82;77.98
34235;BME280;20500;49.856;20.290;2022-10-16T05:36:11;99266.38;;;12.85;78.16
34235;BME280;20500;49.856;20.290;2022-10-16T05:39:18;99267.38;;;12.89;77.97
34235;BME280;20500;49.856;20.290;2022-10-16T05:42:24;99270.67;;;12.93;77.90
34235;BME280;20500;49.856;20.290;2022-10-16T05:45:28;99278.37;;;12.97;77.71
34235;BME280;20500;49.856;20.290;2022-10-16T05:48:35;99276.73;;;13.01;77.56
34235;BME280;20500;49.856;20.290;2022-10-16T05:51:41;99283.34;;;13.05;77.55
34235;BME280;20500;49.856;20.290;2022-10-16T05:54:47;99289.01;;;13.08;77.66
34235;BME280;20500;49.856;20.290;2022-10-16T05:57:53;99292.05;;;13.13;77.46
34235;BME280;20500;49.856;20.290;2022-10-16T06:01:01;99295.29;;;13.17;77.42
34235;BME280;20500;49.856;20.290;2022-10-16T06:04:08;99297.55;;;13.23;77.36
34235;BME280;20500;49.856;20.290;2022-10-16T06:07:20;99298.75;;;13.28;77.14
34235;BME280;20500;49.856;20.290;2022-10-16T06:10:26;99302.83;;;13.35;77.24
34235;BME280;20500;49.856;20.290;2022-10-16T06:13:33;99305.03;;;13.40;77.25
34235;BME280;20500;49.856;20.290;2022-10-16T06:16:38;99308.58;;;13.45;77.09
34235;BME280;20500;49.856;20.290;2022-10-16T06:19:44;99312.73;;;13.50;76.98
34235;BME280;20500;49.856;20.290;2022-10-16T06:22:48;99316.57;;;13.53;77.10
34235;BME280;20500;49.856;20.290;2022-10-16T06:25:54;99318.80;;;13.57;77.12
34235;BME280;20500;49.856;20.290;2022-10-16T06:29:09;99321.30;;;13.61;76.98
34235;BME280;20500;49.856;20.290;2022-10-16T06:32:15;99322.27;;;13.65;76.87
34235;BME280;20500;49.856;20.290;2022-10-16T06:35:20;99325.95;;;13.70;76.80
34235;BME280;20500;49.856;20.290;2022-10-16T06:38:26;99328.03;;;13.73;76.96
34235;BME280;20500;49.856;20.290;2022-10-16T06:41:30;99338.40;;;13.79;76.78
34235;BME280;20500;49.856;20.290;2022-10-16T06:44:37;99341.70;;;13.84;76.67
34235;BME280;20500;49.856;20.290;2022-10-16T06:47:41;99344.02;;;13.90;76.55
34235;BME280;20500;49.856;20.290;2022-10-16T06:50:56;99349.19;;;13.97;76.39
34235;BME280;20500;49.856;20.290;2022-10-16T06:54:03;99351.63;;;14.02;76.65
34235;BME280;20500;49.856;20.290;2022-10-16T06:57:09;99352.92;;;14.07;76.61
34235;BME280;20500;49.856;20.290;2022-10-16T07:00:16;99357.23;;;14.14;76.32
34235;BME280;20500;49.856;20.290;2022-10-16T07:03:22;99359.00;;;14.19;76.34
34235;BME280;20500;49.856;20.290;2022-10-16T07:06:26;99368.69;;;14.24;76.28
34235;BME280;20500;49.856;20.290;2022-10-16T07:09:33;99370.00;;;14.30;76.27
34235;BME280;20500;49.856;20.290;2022-10-16T07:12:37;99376.00;;;14.37;76.13
34235;BME280;20500;49.856;20.290;2022-10-16T07:15:43;99383.87;;;14.48;76.06
34235;BME280;20500;49.856;20.290;2022-10-16T07:18:47;99380.77;;;14.64;76.17
34235;BME280;20500;49.856;20.290;2022-10-16T07:21:59;99380.78;;;14.79;76.05
34235;BME280;20500;49.856;20.290;2022-10-16T07:25:04;99382.72;;;14.93;76.05
34235;BME280;20500;49.856;20.290;2022-10-16T07:28:10;99379.14;;;15.02;75.73
34235;BME280;20500;49.856;20.290;2022-10-16T07:31:15;99376.10;;;15.09;75.72
34235;BME280;20500;49.856;20.290;2022-10-16T07:34:21;99376.67;;;15.16;75.51
34235;BME280;20500;49.856;20.290;2022-10-16T07:37:28;99367.39;;;15.24;75.53
34235;BME280;20500;49.856;20.290;2022-10-16T07:40:32;99364.25;;;15.31;75.46
34235;BME280;20500;49.856;20.290;2022-10-16T07:43:39;99367.90;;;15.38;75.28
34235;BME280;20500;49.856;20.290;2022-10-16T07:46:45;99371.52;;;15.47;75.11
34235;BME280;20500;49.856;20.290;2022-10-16T07:49:50;99373.44;;;15.55;74.92
34235;BME280;20500;49.856;20.290;2022-10-16T07:52:56;99371.88;;;15.65;74.77
34235;BME280;20500;49.856;20.290;2022-10-16T07:56:03;99372.76;;;15.74;74.67
34235;BME280;20500;49.856;20.290;2022-10-16T07:59:10;99375.81;;;15.83;74.49
34235;BME280;20500;49.856;20.290;2022-10-16T08:02:16;99380.55;;;15.92;74.47
34235;BME280;20500;49.856;20.290;2022-10-16T08:05:21;99383.52;;;16.03;74.30
34235;BME280;20500;49.856;20.290;2022-10-16T08:08:28;99379.27;;;16.15;74.23
34235;BME280;20500;49.856;20.290;2022-10-16T08:11:34;99379.48;;;16.28;74.26
34235;BME280;20500;49.856;20.290;2022-10-16T08:14:40;99383.33;;;16.41;74.10
34235;BME280;20500;49.856;20.290;2022-10-16T08:17:58;99384.83;;;16.54;74.06
34235;BME280;20500;49.856;20.290;2022-10-16T08:21:05;99388.04;;;16.66;73.93
34235;BME280;20500;49.856;20.290;2022-10-16T08:24:12;99391.72;;;16.76;73.41
34235;BME280;20500;49.856;20.290;2022-10-16T08:27:18;99388.70;;;16.86;73.36
34235;BME280;20500;49.856;20.290;2022-10-16T08:30:25;99395.11;;;16.96;73.33
34235;BME280;20500;49.856;20.290;2022-10-16T08:33:31;99393.13;;;17.06;73.23
34235;BME280;20500;49.856;20.290;2022-10-16T08:36:39;99395.13;;;17.17;73.11
34235;BME280;20500;49.856;20.290;2022-10-16T08:39:46;99397.77;;;17.25;72.94
34235;BME280;20500;49.856;20.290;2022-10-16T08:43:06;99401.47;;;17.35;72.78
34235;BME280;20500;49.856;20.290;2022-10-16T08:46:37;99403.23;;;17.44;72.63
34235;BME280;20500;49.856;20.290;2022-10-16T08:49:59;99399.05;;;17.51;72.21
34235;BME280;20500;49.856;20.290;2022-10-16T08:53:07;99396.97;;;17.61;72.16
34235;BME280;20500;49.856;20.290;2022-10-16T08:56:20;99398.80;;;17.67;71.87
34235;BME280;20500;49.856;20.290;2022-10-16T08:59:28;99400.77;;;17.75;71.70
34235;BME280;20500;49.856;20.290;2022-10-16T09:02:36;99396.55;;;17.82;71.28
34235;BME280;20500;49.856;20.290;2022-10-16T09:05:54;99396.63;;;17.89;71.12
34235;BME280;20500;49.856;20.290;2022-10-16T09:09:14;99395.96;;;17.95;70.92
34235;BME280;20500;49.856;20.290;2022-10-16T09:12:28;99395.25;;;17.99;70.72
34235;BME280;20500;49.856;20.290;2022-10-16T09:15:42;99400.61;;;18.03;70.42
34235;BME280;20500;49.856;20.290;2022-10-16T09:18:55;99403.80;;;18.07;70.30
34235;BME280;20500;49.856;20.290;2022-10-16T09:22:12;99409.81;;;18.08;70.08
34235;BME280;20500;49.856;20.290;2022-10-16T09:25:22;99411.77;;;18.12;69.78
34235;BME280;20500;49.856;20.290;2022-10-16T09:28:28;99412.11;;;18.19;69.53
34235;BME280;20500;49.856;20.290;2022-10-16T09:31:37;99417.22;;;18.28;69.46
34235;BME280;20500;49.856;20.290;2022-10-16T09:34:46;99421.58;;;18.39;69.16
34235;BME280;20500;49.856;20.290;2022-10-16T09:37:55;99423.95;;;18.50;69.07
34235;BME280;20500;49.856;20.290;2022-10-16T09:41:03;99426.98;;;18.54;68.72
34235;BME280;20500;49.856;20.290;2022-10-16T09:44:23;99431.25;;;18.55;68.36
34235;BME280;20500;49.856;20.290;2022-10-16T09:47:32;99430.87;;;18.54;68.04
34235;BME280;20500;49.856;20.290;2022-10-16T09:50:43;99430.00;;;18.51;67.87
34235;BME280;20500;49.856;20.290;2022-10-16T09:53:54;99432.41;;;18.47;67.70
34235;BME280;20500;49.856;20.290;2022-10-16T09:57:10;99432.35;;;18.40;67.23
34235;BME280;20500;49.856;20.290;2022-10-16T10:00:19;99437.91;;;18.33;67.07
34235;BME280;20500;49.856;20.290;2022-10-16T10:03:45;99437.71;;;18.26;67.02
34235;BME280;20500;49.856;20.290;2022-10-16T10:06:53;99437.49;;;18.21;66.81
34235;BME280;20500;49.856;20.290;2022-10-16T10:10:02;99437.78;;;18.17;66.60
34235;BME280;20500;49.856;20.290;2022-10-16T10:13:19;99433.02;;;18.15;66.57
34235;BME280;20500;49.856;20.290;2022-10-16T10:16:26;99430.09;;;18.18;66.67
34235;BME280;20500;49.856;20.290;2022-10-16T10:19:39;99432.45;;;18.20;66.73
34235;BME280;20500;49.856;20.290;2022-10-16T10:22:47;99435.40;;;18.24;66.68
34235;BME280;20500;49.856;20.290;2022-10-16T10:25:56;99439.22;;;18.28;66.65
34235;BME280;20500;49.856;20.290;2022-10-16T10:29:08;99438.09;;;18.31;66.56
34235;BME280;20500;49.856;20.290;2022-10-16T10:32:28;99438.02;;;18.34;66.59
34235;BME280;20500;49.856;20.290;2022-10-16T10:35:43;99439.58;;;18.37;66.31
34235;BME280;20500;49.856;20.290;2022-10-16T10:38:52;99442.91;;;18.38;66.30
34235;BME280;20500;49.856;20.290;2022-10-16T10:42:11;99445.50;;;18.38;65.94
34235;BME280;20500;49.856;20.290;2022-10-16T10:45:28;99445.86;;;18.40;65.93
34235;BME280;20500;49.856;20.290;2022-10-16T10:49:03;99443.75;;;18.46;66.13
34235;BME280;20500;49.856;20.290;2022-10-16T10:52:27;99440.98;;;18.53;65.95
34235;BME280;20500;49.856;20.290;2022-10-16T10:55:43;99441.52;;;18.59;65.75
34235;BME280;20500;49.856;20.290;2022-10-16T10:59:04;99439.29;;;18.67;65.92
34235;BME280;20500;49.856;20.290;2022-10-16T11:02:21;99437.89;;;18.75;65.91
34235;BME280;20500;49.856;20.290;2022-10-16T11:05:42;99436.52;;;18.81;65.48
34235;BME280;20500;49.856;20.290;2022-10-16T11:08:52;99429.91;;;18.84;65.41
34235;BME280;20500;49.856;20.290;2022-10-16T11:12:08;99429.75;;;18.88;65.47
34235;BME280;20500;49.856;20.290;2022-10-16T11:15:20;99432.67;;;18.89;65.20
34235;BME280;20500;49.856;20.290;2022-10-16T11:18:32;99431.93;;;18.90;65.18
34235;BME280;20500;49.856;20.290;2022-10-16T11:21:50;99430.07;;;18.94;65.11
34235;BME280;20500;49.856;20.290;2022-10-16T11:25:00;99433.61;;;19.00;65.16
34235;BME280;20500;49.856;20.290;2022-10-16T11:28:13;99430.02;;;19.07;65.30
34235;BME280;20500;49.856;20.290;2022-10-16T11:31:26;99428.80;;;19.14;65.18
34235;BME280;20500;49.856;20.290;2022-10-16T11:34:41;99429.36;;;19.20;65.14
34235;BME280;20500;49.856;20.290;2022-10-16T11:37:51;99427.52;;;19.25;64.80
34235;BME280;20500;49.856;20.290;2022-10-16T11:41:01;99430.23;;;19.32;64.89
34235;BME280;20500;49.856;20.290;2022-10-16T11:44:32;99426.58;;;19.37;64.67
34235;BME280;20500;49.856;20.290;2022-10-16T11:47:43;99424.41;;;19.44;64.77
34235;BME280;20500;49.856;20.290;2022-10-16T11:51:08;99427.30;;;19.57;64.47
34235;BME280;20500;49.856;20.290;2022-10-16T11:54:20;99432.45;;;19.68;64.60
34235;BME280;20500;49.856;20.290;2022-10-16T11:57:31;99431.84;;;19.77;64.18
34235;BME280;20500;49.856;20.290;2022-10-16T12:00:43;99428.83;;;19.82;63.88
34235;BME280;20500;49.856;20.290;2022-10-16T12:04:02;99426.58;;;19.86;63.82
34235;BME280;20500;49.856;20.290;2022-10-16T12:07:13;99423.97;;;19.90;63.89
34235;BME280;20500;49.856;20.290;2022-10-16T12:10:23;99421.11;;;19.90;63.63
34235;BME280;20500;49.856;20.290;2022-10-16T12:13:33;99423.02;;;19.89;63.61
34235;BME280;20500;49.856;20.290;2022-10-16T12:16:50;99421.45;;;19.87;63.49
34235;BME280;20500;49.856;20.290;2022-10-16T12:20:21;99423.86;;;19.82;63.34
34235;BME280;20500;49.856;20.290;2022-10-16T12:23:28;99429.59;;;19.77;63.26
34235;BME280;20500;49.856;20.290;2022-10-16T12:26:37;99436.09;;;19.75;63.31
34235;BME280;20500;49.856;20.290;2022-10-16T12:29:45;99437.41;;;19.70;63.42
34235;BME280;20500;49.856;20.290;2022-10-16T12:32:57;99441.70;;;19.66;63.03
34235;BME280;20500;49.856;20.290;2022-10-16T12:36:07;99441.27;;;19.58;62.76
34235;BME280;20500;49.856;20.290;2022-10-16T12:39:22;99440.45;;;19.53;62.82
34235;BME280;20500;49.856;20.290;2022-10-16T12:42:35;99442.02;;;19.46;62.78
34235;BME280;20500;49.856;20.290;2022-10-16T12:45:42;99444.55;;;19.40;62.68
34235;BME280;20500;49.856;20.290;2022-10-16T12:48:49;99445.08;;;19.36;62.52
34235;BME280;20500;49.856;20.290;2022-10-16T12:52:27;99444.05;;;19.31;62.46
34235;BME280;20500;49.856;20.290;2022-10-16T12:55:45;99447.83;;;19.28;62.44
34235;BME280;20500;49.856;20.290;2022-10-16T12:59:03;99450.23;;;19.26;62.37
34235;BME280;20500;49.856;20.290;2022-10-16T13:02:46;99445.91;;;19.25;62.54
34235;BME280;20500;49.856;20.290;2022-10-16T13:06:10;99446.91;;;19.27;62.45
34235;BME280;20500;49.856;20.290;2022-10-16T13:09:32;99444.78;;;19.38;62.44
34235;BME280;20500;49.856;20.290;2022-10-16T13:13:00;99443.80;;;19.49;62.51
34235;BME280;20500;49.856;20.290;2022-10-16T13:16:18;99444.13;;;19.64;62.17
34235;BME280;20500;49.856;20.290;2022-10-16T13:19:32;99446.40;;;19.76;62.05
34235;BME280;20500;49.856;20.290;2022-10-16T13:22:48;99447.65;;;19.83;61.96
34235;BME280;20500;49.856;20.290;2022-10-16T13:26:11;99450.05;;;19.88;61.99
34235;BME280;20500;49.856;20.290;2022-10-16T13:29:23;99450.23;;;19.94;61.84
34235;BME280;20500;49.856;20.290;2022-10-16T13:32:35;99446.25;;;20.05;61.82
34235;BME280;20500;49.856;20.290;2022-10-16T13:35:49;99453.42;;;20.12;61.75
34235;BME280;20500;49.856;20.290;2022-10-16T13:39:12;99457.77;;;20.15;61.68
34235;BME280;20500;49.856;20.290;2022-10-16T13:42:24;99461.33;;;20.14;61.48
34235;BME280;20500;49.856;20.290;2022-10-16T13:45:32;99464.90;;;20.14;61.45
34235;BME280;20500;49.856;20.290;2022-10-16T13:48:38;99465.13;;;20.13;61.41
34235;BME280;20500;49.856;20.290;2022-10-16T13:51:55;99462.01;;;20.14;61.53
34235;BME280;20500;49.856;20.290;2022-10-16T13:55:02;99464.88;;;20.16;61.43
34235;BME280;20500;49.856;20.290;2022-10-16T13:58:12;99471.20;;;20.14;61.21
34235;BME280;20500;49.856;20.290;2022-10-16T14:01:22;99475.13;;;20.10;61.39
34235;BME280;20500;49.856;20.290;2022-10-16T14:04:40;99472.70;;;20.04;61.16
34235;BME280;20500;49.856;20.290;2022-10-16T14:07:50;99476.52;;;19.98;61.07
34235;BME280;20500;49.856;20.290;2022-10-16T14:10:58;99479.96;;;19.92;61.12
34235;BME280;20500;49.856;20.290;2022-10-16T14:14:09;99482.39;;;19.83;61.00
34235;BME280;20500;49.856;20.290;2022-10-16T14:17:18;99484.91;;;19.74;60.98
34235;BME280;20500;49.856;20.290;2022-10-16T14:20:28;99485.48;;;19.72;61.14
34235;BME280;20500;49.856;20.290;2022-10-16T14:23:37;99486.70;;;19.67;61.05
34235;BME280;20500;49.856;20.290;2022-10-16T14:26:44;99491.34;;;19.64;60.94
34235;BME280;20500;49.856;20.290;2022-10-16T14:30:14;99490.64;;;19.60;61.00
34235;BME280;20500;49.856;20.290;2022-10-16T14:33:30;99496.84;;;19.55;60.99
34235;BME280;20500;49.856;20.290;2022-10-16T14:36:40;99498.39;;;19.49;60.90
34235;BME280;20500;49.856;20.290;2022-10-16T14:39:50;99496.57;;;19.42;60.83
34235;BME280;20500;49.856;20.290;2022-10-16T14:42:57;99499.41;;;19.34;60.83
34235;BME280;20500;49.856;20.290;2022-10-16T14:46:06;99499.51;;;19.25;60.72
34235;BME280;20500;49.856;20.290;2022-10-16T14:49:19;99502.45;;;19.16;60.95
34235;BME280;20500;49.856;20.290;2022-10-16T14:52:26;99505.42;;;19.07;61.18
34235;BME280;20500;49.856;20.290;2022-10-16T14:55:32;99507.33;;;18.98;61.11
34235;BME280;20500;49.856;20.290;2022-10-16T14:58:39;99503.90;;;18.90;61.19
34235;BME280;20500;49.856;20.290;2022-10-16T15:01:45;99498.05;;;18.81;61.08
34235;BME280;20500;49.856;20.290;2022-10-16T15:04:52;99497.60;;;18.70;61.09
34235;BME280;20500;49.856;20.290;2022-10-16T15:07:58;99498.04;;;18.61;61.02
34235;BME280;20500;49.856;20.290;2022-10-16T15:11:05;99495.88;;;18.52;61.05
34235;BME280;20500;49.856;20.290;2022-10-16T15:14:14;99489.28;;;18.41;61.11
34235;BME280;20500;49.856;20.290;2022-10-16T15:17:20;99480.24;;;18.32;61.27
34235;BME280;20500;49.856;20.290;2022-10-16T15:20:27;99480.27;;;18.23;61.19
34235;BME280;20500;49.856;20.290;2022-10-16T15:23:34;99478.16;;;18.12;61.18
34235;BME280;20500;49.856;20.290;2022-10-16T15:26:41;99485.09;;;18.01;61.28
34235;BME280;20500;49.856;20.290;2022-10-16T15:29:47;99490.80;;;17.87;61.44
34235;BME280;20500;49.856;20.290;2022-10-16T15:32:53;99500.24;;;17.74;61.66
34235;BME280;20500;49.856;20.290;2022-10-16T15:36:00;99503.48;;;17.62;61.71
34235;BME280;20500;49.856;20.290;2022-10-16T15:39:10;99499.46;;;17.52;61.66
34235;BME280;20500;49.856;20.290;2022-10-16T15:42:18;99499.57;;;17.46;61.93
34235;BME280;20500;49.856;20.290;2022-10-16T15:45:24;99510.02;;;17.40;62.01
34235;BME280;20500;49.856;20.290;2022-10-16T15:48:31;99513.48;;;17.31;62.21
34235;BME280;20500;49.856;20.290;2022-10-16T15:51:39;99522.77;;;17.21;62.21
34235;BME280;20500;49.856;20.290;2022-10-16T15:54:46;99527.91;;;17.09;62.43
34235;BME280;20500;49.856;20.290;2022-10-16T15:57:58;99534.64;;;16.97;62.37
34235;BME280;20500;49.856;20.290;2022-10-16T16:01:04;99539.39;;;16.86;62.45
34235;BME280;20500;49.856;20.290;2022-10-16T16:04:11;99544.89;;;16.78;62.69
34235;BME280;20500;49.856;20.290;2022-10-16T16:07:38;99542.83;;;16.71;62.88
34235;BME280;20500;49.856;20.290;2022-10-16T16:10:44;99540.27;;;16.65;62.96
34235;BME280;20500;49.856;20.290;2022-10-16T16:13:50;99544.59;;;16.60;63.08
34235;BME280;20500;49.856;20.290;2022-10-16T16:16:55;99549.98;;;16.54;63.14
34235;BME280;20500;49.856;20.290;2022-10-16T16:20:02;99548.91;;;16.44;63.39
34235;BME280;20500;49.856;20.290;2022-10-16T16:23:09;99557.47;;;16.37;63.58
34235;BME280;20500;49.856;20.290;2022-10-16T16:26:21;99567.00;;;16.27;63.55
34235;BME280;20500;49.856;20.290;2022-10-16T16:29:28;99569.10;;;16.20;63.60
34235;BME280;20500;49.856;20.290;2022-10-16T16:32:33;99570.39;;;16.17;63.74